Terminal Aerodrome Forecast
Issued by NWS

Home | Current Version | Previous Version | Text Only | Print | Product List | Glossary On
Versions: 1 2 3 4 5 6 7 8 9 10 11 12 13 14 15 16 17 18 19 20 21 22 23 24 25 26
949
FTUS41 KBUF 240520
TAFJHW
TAF
KJHW 240520Z 2406/2506 19013G19KT P6SM BKN007
     FM240700 21009KT P6SM OVC015
     FM242100 20013G21KT P6SM SCT025
     FM242200 20013G20KT P6SM SCT025
     FM250200 21012KT P6SM SCT025
     FM250500 21013KT P6SM BKN025
      AMD LTD TO CLD VIS AND WIND=

USA.gov is the U.S. government's official web portal to all federal, state and local government web resources and services.